Time;durP1;ratioP1;P1;durP2;ratioP2;P2;SDS_P1;SDS_P2;PMS_P1;PMS_P2;Temp;Humidity;BMP_temperature;BMP_pressure;BME280_temperature;BME280_humidity;BME280_pressure;Samples;Min_cycle;Max_cycle;Signal;HPM_P1;HPM_P2
2021/12/18 00:00:37;;;;;;;19.02;17.02;;;;;;;4.48;78.08;102506.94;5036760;28;20407;-80
2021/12/18 00:03:04;;;;;;;20.17;18.07;;;;;;;4.44;78.39;102507.44;5033247;28;20488;-81
2021/12/18 00:05:29;;;;;;;20.80;18.63;;;;;;;4.50;77.67;102509.50;5045977;28;20398;-81
2021/12/18 00:07:54;;;;;;;20.30;18.27;;;;;;;4.49;77.95;102505.09;5037767;28;20440;-81
2021/12/18 00:10:22;;;;;;;19.87;17.87;;;;;;;4.46;78.21;102506.28;5043688;28;20412;-80
2021/12/18 00:12:49;;;;;;;20.73;18.63;;;;;;;4.45;77.98;102495.66;5049691;28;20488;-80
2021/12/18 00:15:16;;;;;;;21.08;18.88;;;;;;;4.42;78.17;102493.28;5048804;28;20398;-80
2021/12/18 00:17:42;;;;;;;20.85;18.73;;;;;;;4.41;78.38;102484.41;5038006;28;20890;-81
2021/12/18 00:20:07;;;;;;;20.67;18.50;;;;;;;4.49;77.82;102491.69;5052052;28;20429;-80
2021/12/18 00:22:33;;;;;;;20.95;18.75;;;;;;;4.43;78.17;102495.84;5045992;28;20391;-81
2021/12/18 00:24:58;;;;;;;22.13;18.80;;;;;;;4.39;78.12;102491.78;5035974;28;20411;-80
2021/12/18 00:27:23;;;;;;;20.47;18.30;;;;;;;4.43;78.02;102490.47;5035377;28;20399;-80
2021/12/18 00:29:49;;;;;;;20.67;18.47;;;;;;;4.46;78.12;102487.47;5032935;28;20407;-81
2021/12/18 00:32:14;;;;;;;21.80;18.27;;;;;;;4.40;78.13;102484.56;5039188;28;20409;-81
2021/12/18 00:34:39;;;;;;;21.27;18.63;;;;;;;4.35;78.05;102476.97;5043224;28;20415;-80
2021/12/18 00:37:05;;;;;;;21.73;19.13;;;;;;;4.36;78.17;102477.81;5033409;28;20395;-80
2021/12/18 00:39:32;;;;;;;22.75;18.98;;;;;;;4.35;78.31;102481.50;5044935;28;20423;-80
2021/12/18 00:42:19;;;;;;;21.05;18.75;;;;;;;4.33;78.20;102478.13;5038281;28;20931;-80
2021/12/18 00:44:44;;;;;;;22.00;18.88;;;;;;;4.38;78.20;102484.72;5043830;28;20394;-81
2021/12/18 00:47:09;;;;;;;24.00;19.47;;;;;;;4.37;77.89;102479.50;5037589;28;20460;-80
2021/12/18 00:49:34;;;;;;;22.83;19.57;;;;;;;4.43;78.03;102481.56;5034875;28;20390;-80
2021/12/18 00:52:00;;;;;;;22.43;19.73;;;;;;;4.42;77.59;102483.41;5045879;28;20391;-81
2021/12/18 00:54:26;;;;;;;23.33;20.33;;;;;;;4.45;78.13;102477.72;5054317;28;20408;-81
2021/12/18 00:56:52;;;;;;;25.30;20.35;;;;;;;4.40;77.86;102476.53;5052704;28;20439;-81
2021/12/18 00:59:17;;;;;;;24.23;20.52;;;;;;;4.37;78.03;102474.16;5036528;28;20411;-81
2021/12/18 01:01:45;;;;;;;24.43;20.77;;;;;;;4.33;77.98;102473.59;5062629;28;21032;-81
2021/12/18 01:04:10;;;;;;;24.50;20.05;;;;;;;4.29;78.33;102485.66;5045512;28;20397;-81
2021/12/18 01:06:35;;;;;;;25.60;21.03;;;;;;;4.28;78.73;102480.44;5037960;28;20406;-81
2021/12/18 01:09:01;;;;;;;26.50;21.10;;;;;;;4.37;78.19;102483.03;5044475;28;20739;-81
2021/12/18 01:14:22;;;;;;;26.33;20.48;;;;;;;4.30;78.06;102484.66;5040524;28;20402;-81
2021/12/18 01:22:39;;;;;;;26.48;21.27;;;;;;;4.22;78.44;102487.25;5048758;28;20388;-81
2021/12/18 01:25:06;;;;;;;25.88;21.25;;;;;;;4.07;78.93;102497.69;5040142;28;20413;-81
2021/12/18 01:27:31;;;;;;;25.43;21.33;;;;;;;4.02;79.34;102489.25;5032151;28;20942;-80
2021/12/18 01:29:57;;;;;;;28.60;21.27;;;;;;;4.00;79.34;102487.72;5036943;28;20545;-81
2021/12/18 01:32:23;;;;;;;28.37;22.33;;;;;;;4.02;79.22;102497.31;5046819;28;20487;-81
2021/12/18 01:34:48;;;;;;;27.13;21.23;;;;;;;3.99;79.16;102504.81;5045477;28;20487;-81
2021/12/18 01:37:14;;;;;;;26.77;21.37;;;;;;;3.98;79.34;102497.78;5032429;28;20409;-80
2021/12/18 01:39:40;;;;;;;26.00;20.80;;;;;;;4.03;79.47;102507.03;5031587;28;20755;-81
2021/12/18 01:52:59;;;;;;;25.73;21.67;;;;;;;3.93;79.67;102500.06;5045051;28;20498;-80
2021/12/18 01:55:28;;;;;;;28.15;22.70;;;;;;;3.96;79.68;102497.06;5038853;28;20398;-81
2021/12/18 01:57:53;;;;;;;26.73;21.73;;;;;;;3.96;79.71;102502.44;5062076;28;20456;-80
2021/12/18 02:00:22;;;;;;;26.90;22.13;;;;;;;3.93;79.43;102490.19;5035399;28;20395;-80
2021/12/18 02:02:47;;;;;;;26.08;22.20;;;;;;;3.92;79.78;102498.41;5044309;28;20439;-81
2021/12/18 02:05:13;;;;;;;28.20;21.97;;;;;;;3.95;79.61;102498.09;5034980;28;20428;-81
2021/12/18 02:07:41;;;;;;;27.23;22.03;;;;;;;3.96;79.65;102499.75;5039171;28;20419;-81
2021/12/18 02:10:15;;;;;;;27.15;22.70;;;;;;;3.95;79.43;102498.09;5033203;28;20461;-81
2021/12/18 02:12:55;;;;;;;26.65;22.25;;;;;;;3.90;79.92;102495.00;5038853;28;20443;-81
2021/12/18 02:21:06;;;;;;;27.50;22.67;;;;;;;3.84;80.07;102491.09;5040622;28;20453;-81
2021/12/18 02:23:31;;;;;;;26.58;21.83;;;;;;;3.83;79.99;102486.72;5058600;28;20902;-81
2021/12/18 02:25:56;;;;;;;26.90;21.63;;;;;;;3.80;79.94;102494.22;5046494;28;20409;-80
2021/12/18 02:28:25;;;;;;;28.00;22.38;;;;;;;3.84;79.84;102492.94;5038152;28;20484;-81
2021/12/18 02:30:52;;;;;;;27.88;21.95;;;;;;;3.73;80.37;102485.94;5040441;28;20387;-81
2021/12/18 02:33:17;;;;;;;30.95;22.65;;;;;;;3.77;80.47;102490.00;5044468;28;20401;-81
2021/12/18 02:35:48;;;;;;;29.35;23.27;;;;;;;3.79;80.14;102489.88;5032240;28;20901;-80
2021/12/18 02:38:23;;;;;;;28.33;22.17;;;;;;;3.74;80.30;102495.69;5053967;28;20448;-81
2021/12/18 02:43:29;;;;;;;28.42;22.23;;;;;;;3.79;80.06;102493.38;5035573;28;20403;-81
2021/12/18 02:45:59;;;;;;;28.95;22.38;;;;;;;3.80;79.97;102497.75;5040002;28;20399;-80
2021/12/18 02:48:28;;;;;;;28.20;22.77;;;;;;;3.83;79.93;102494.75;5031224;28;20391;-81
2021/12/18 02:50:56;;;;;;;28.10;23.60;;;;;;;3.83;79.99;102497.44;5037216;28;20414;-81
2021/12/18 02:53:22;;;;;;;29.55;23.08;;;;;;;3.82;79.75;102501.09;5046683;28;20444;-81
2021/12/18 02:55:54;;;;;;;28.00;22.95;;;;;;;3.78;80.04;102502.44;5034887;28;20403;-81
2021/12/18 02:58:19;;;;;;;26.98;22.35;;;;;;;3.75;80.33;102496.53;5040390;28;20401;-81
2021/12/18 03:00:44;;;;;;;31.43;23.13;;;;;;;3.78;80.03;102498.91;5033094;28;20411;-81
2021/12/18 03:03:10;;;;;;;28.20;22.92;;;;;;;3.83;80.10;102497.44;5047779;28;20393;-81
2021/12/18 03:05:44;;;;;;;29.88;23.65;;;;;;;3.82;79.90;102498.44;5032580;28;20411;-81
2021/12/18 03:08:16;;;;;;;29.42;24.23;;;;;;;3.73;80.39;102491.28;5044513;28;20457;-81
2021/12/18 03:19:30;;;;;;;30.25;24.63;;;;;;;3.72;80.70;102502.19;5057940;28;20946;-80
2021/12/18 03:24:42;;;;;;;29.25;23.27;;;;;;;3.70;80.71;102491.59;5034392;28;20488;-81
2021/12/18 03:27:07;;;;;;;29.05;23.48;;;;;;;3.69;80.82;102491.78;5054420;28;20389;-81
2021/12/18 03:29:34;;;;;;;28.57;23.47;;;;;;;3.63;80.93;102495.88;5048662;28;20401;-81
2021/12/18 03:31:59;;;;;;;30.45;23.52;;;;;;;3.63;81.03;102502.09;5041974;28;20400;-81
2021/12/18 03:34:24;;;;;;;31.45;24.73;;;;;;;3.64;80.98;102494.88;5037163;28;20775;-81
2021/12/18 03:36:51;;;;;;;30.27;23.57;;;;;;;3.71;80.95;102495.13;5032790;28;20813;-81
2021/12/18 03:39:16;;;;;;;28.42;23.63;;;;;;;3.76;80.58;102491.00;5049931;28;20413;-81
2021/12/18 03:41:42;;;;;;;30.70;24.53;;;;;;;3.68;80.94;102493.59;5042704;28;20903;-81
2021/12/18 03:44:07;;;;;;;32.67;24.53;;;;;;;3.71;80.98;102497.81;5048908;28;20447;-81
2021/12/18 03:46:33;;;;;;;29.35;23.65;;;;;;;3.66;80.75;102488.38;5035320;28;20403;-81
2021/12/18 03:48:58;;;;;;;30.30;23.97;;;;;;;3.72;80.79;102491.47;5041509;28;20904;-81
2021/12/18 03:51:23;;;;;;;31.70;23.73;;;;;;;3.75;80.41;102489.31;5034601;28;20758;-81
2021/12/18 03:53:48;;;;;;;28.87;22.97;;;;;;;3.71;80.58;102485.25;5034383;28;20395;-81
2021/12/18 03:56:14;;;;;;;30.00;23.43;;;;;;;3.72;80.44;102486.09;5048901;28;20400;-80
2021/12/18 03:58:39;;;;;;;30.00;22.85;;;;;;;3.75;80.61;102478.59;5034041;28;20430;-80
2021/12/18 04:01:04;;;;;;;30.73;24.00;;;;;;;3.74;80.53;102481.41;5034518;28;20402;-80
2021/12/18 04:03:30;;;;;;;27.80;22.10;;;;;;;3.84;80.24;102482.19;5033844;28;20418;-80
2021/12/18 04:05:55;;;;;;;26.30;21.45;;;;;;;3.82;80.41;102485.03;5033605;28;20399;-81
2021/12/18 04:08:20;;;;;;;32.13;24.30;;;;;;;3.81;80.35;102498.59;5033108;28;20779;-80
2021/12/18 04:10:45;;;;;;;29.10;23.17;;;;;;;3.81;80.40;102499.44;5033838;28;20402;-80
2021/12/18 04:13:11;;;;;;;27.77;23.47;;;;;;;3.83;80.12;102497.44;5045541;28;20393;-81
2021/12/18 04:15:38;;;;;;;28.83;23.57;;;;;;;3.84;80.12;102500.97;5038272;28;20391;-81
2021/12/18 04:18:03;;;;;;;29.65;23.33;;;;;;;3.87;79.94;102498.84;5035597;28;20433;-81
2021/12/18 04:20:29;;;;;;;29.57;23.63;;;;;;;3.80;79.65;102503.13;5037848;28;21004;-80
2021/12/18 04:22:55;;;;;;;29.30;23.00;;;;;;;3.73;80.23;102498.50;5042906;28;20481;-80
2021/12/18 04:25:21;;;;;;;25.73;21.20;;;;;;;3.70;80.30;102499.66;5038887;28;20414;-80
2021/12/18 04:27:46;;;;;;;28.77;23.33;;;;;;;3.75;80.30;102499.22;5047506;28;20409;-80
2021/12/18 04:30:13;;;;;;;28.77;22.95;;;;;;;3.75;79.83;102492.00;5033230;28;20418;-81
2021/12/18 04:32:38;;;;;;;29.90;22.77;;;;;;;3.69;80.29;102491.78;5034948;28;20419;-80
2021/12/18 04:35:04;;;;;;;26.80;22.10;;;;;;;3.72;80.13;102496.81;5039268;28;20405;-81
2021/12/18 04:37:29;;;;;;;28.57;21.87;;;;;;;3.75;80.27;102502.72;5035631;28;20403;-80
2021/12/18 04:39:54;;;;;;;31.73;23.80;;;;;;;3.77;80.13;102508.78;5036806;28;20413;-81
2021/12/18 04:42:20;;;;;;;29.25;23.10;;;;;;;3.79;80.11;102506.78;5048455;28;20837;-81
2021/12/18 04:44:46;;;;;;;28.95;22.70;;;;;;;3.75;80.32;102507.25;5035212;28;20407;-80
2021/12/18 04:47:11;;;;;;;29.47;23.57;;;;;;;3.75;79.72;102512.63;5033986;28;20740;-81
2021/12/18 04:49:36;;;;;;;27.97;22.03;;;;;;;3.78;79.98;102502.44;5036667;28;20927;-81
2021/12/18 04:52:02;;;;;;;26.63;22.00;;;;;;;3.81;79.48;102512.84;5045492;28;20391;-80
2021/12/18 04:54:27;;;;;;;28.60;22.15;;;;;;;3.79;79.95;102519.38;5035069;28;20766;-81
2021/12/18 04:56:53;;;;;;;28.20;21.75;;;;;;;3.81;79.80;102510.16;5031458;28;20419;-80
2021/12/18 04:59:18;;;;;;;27.83;21.90;;;;;;;3.88;79.75;102515.78;5042292;28;20935;-80
2021/12/18 05:01:43;;;;;;;26.17;21.30;;;;;;;3.86;79.70;102515.06;5053836;28;20488;-80
2021/12/18 05:04:11;;;;;;;28.93;22.33;;;;;;;3.90;79.69;102520.00;5036721;28;20409;-80
2021/12/18 05:06:40;;;;;;;27.65;22.58;;;;;;;3.93;79.53;102508.94;5041340;28;20418;-81
2021/12/18 05:09:06;;;;;;;27.17;21.97;;;;;;;3.93;79.01;102514.31;5051342;28;20465;-81
2021/12/18 05:11:32;;;;;;;27.47;22.00;;;;;;;3.91;79.36;102510.94;5039493;28;20892;-81
2021/12/18 05:13:57;;;;;;;26.03;21.93;;;;;;;3.88;79.42;102511.25;5035392;28;20411;-81
2021/12/18 05:16:22;;;;;;;26.50;21.53;;;;;;;3.91;79.23;102518.16;5040069;28;20485;-81
2021/12/18 05:18:47;;;;;;;28.20;22.23;;;;;;;3.90;78.99;102511.09;5036206;28;20508;-80
2021/12/18 05:21:13;;;;;;;28.93;22.57;;;;;;;3.93;79.13;102518.84;5033803;28;21264;-81
2021/12/18 05:23:38;;;;;;;27.37;21.33;;;;;;;3.96;79.40;102513.16;5033682;28;20471;-81
2021/12/18 05:26:03;;;;;;;26.90;21.30;;;;;;;4.01;79.40;102514.41;5032837;28;20486;-81
2021/12/18 05:28:29;;;;;;;28.23;21.60;;;;;;;4.15;78.99;102524.59;5046016;28;20406;-81
2021/12/18 05:30:54;;;;;;;27.60;21.40;;;;;;;4.12;78.77;102519.53;5040870;28;20819;-81
2021/12/18 05:33:19;;;;;;;31.30;23.00;;;;;;;4.08;79.07;102514.66;5031727;28;20410;-81
2021/12/18 05:35:45;;;;;;;28.47;21.37;;;;;;;4.18;78.92;102504.69;5041143;28;20873;-81
2021/12/18 05:38:10;;;;;;;30.08;21.60;;;;;;;4.02;79.70;102507.19;5044068;28;20487;-81
2021/12/18 05:40:37;;;;;;;29.03;21.53;;;;;;;3.90;80.11;102511.94;5033319;28;20481;-81
2021/12/18 05:43:03;;;;;;;27.48;21.98;;;;;;;3.86;79.83;102515.06;5037927;28;20401;-81
2021/12/18 05:45:28;;;;;;;29.00;21.13;;;;;;;3.81;79.53;102509.31;5046663;28;20742;-80
2021/12/18 05:47:54;;;;;;;28.30;21.83;;;;;;;3.81;79.67;102506.63;5048771;28;20409;-81
2021/12/18 05:50:20;;;;;;;28.33;20.63;;;;;;;3.84;80.07;102507.19;5035780;28;20391;-81
2021/12/18 05:52:48;;;;;;;28.37;21.50;;;;;;;3.80;79.75;102516.53;5044456;28;20419;-81
2021/12/18 05:55:15;;;;;;;28.83;21.27;;;;;;;3.81;79.73;102517.38;5042111;28;20395;-80
2021/12/18 05:57:40;;;;;;;27.47;21.10;;;;;;;3.75;79.93;102508.09;5039804;28;20393;-81
2021/12/18 06:00:08;;;;;;;27.27;21.77;;;;;;;3.71;80.19;102519.25;5038850;28;20421;-81
2021/12/18 06:02:33;;;;;;;27.25;20.73;;;;;;;3.80;79.49;102521.03;5037609;28;20481;-81
2021/12/18 06:04:58;;;;;;;28.50;20.37;;;;;;;3.74;80.06;102525.16;5042499;28;20813;-80
2021/12/18 06:07:32;;;;;;;27.63;20.08;;;;;;;3.83;79.44;102528.78;5044497;28;20381;-81
2021/12/18 06:09:59;;;;;;;27.42;20.23;;;;;;;3.90;79.10;102529.88;5048363;28;20988;-80
2021/12/18 06:12:25;;;;;;;26.70;19.10;;;;;;;3.81;79.68;102528.09;5046209;28;20754;-81
2021/12/18 06:14:51;;;;;;;26.83;20.10;;;;;;;3.89;79.15;102530.84;5031535;28;20403;-80
2021/12/18 06:17:16;;;;;;;30.10;21.87;;;;;;;3.83;79.50;102537.66;5038397;28;20422;-81
2021/12/18 06:19:42;;;;;;;31.13;22.07;;;;;;;3.79;79.94;102538.97;5037710;28;20419;-80
2021/12/18 06:22:07;;;;;;;28.63;20.97;;;;;;;3.71;79.60;102536.19;5036162;28;20401;-80
2021/12/18 06:24:33;;;;;;;29.03;21.60;;;;;;;3.75;80.07;102537.59;5042913;28;20396;-81
2021/12/18 06:26:58;;;;;;;29.05;20.65;;;;;;;3.80;80.10;102535.28;5038904;28;20397;-81
2021/12/18 06:29:23;;;;;;;29.47;21.60;;;;;;;3.78;80.04;102533.75;5061228;28;20403;-81
2021/12/18 06:31:49;;;;;;;27.90;21.23;;;;;;;3.84;79.55;102538.53;5033441;28;20782;-81
2021/12/18 06:34:15;;;;;;;28.17;20.77;;;;;;;3.89;79.67;102538.91;5043506;28;20407;-81
2021/12/18 06:36:40;;;;;;;32.53;21.50;;;;;;;3.90;79.40;102541.44;5048714;28;20514;-81
2021/12/18 06:39:05;;;;;;;30.77;21.60;;;;;;;3.82;79.76;102537.84;5036019;28;20800;-80
2021/12/18 06:41:31;;;;;;;29.47;21.47;;;;;;;3.85;79.64;102537.53;5037541;28;20426;-81
2021/12/18 06:43:56;;;;;;;29.23;22.23;;;;;;;3.82;80.02;102535.16;5035075;28;20402;-80
2021/12/18 06:46:21;;;;;;;27.97;21.33;;;;;;;3.79;79.92;102532.78;5037379;28;20522;-81
2021/12/18 06:48:47;;;;;;;27.00;20.88;;;;;;;3.77;80.14;102537.44;5039037;28;20513;-81
2021/12/18 06:51:12;;;;;;;30.43;21.27;;;;;;;3.77;79.90;102545.47;5039235;28;20794;-80
2021/12/18 06:53:37;;;;;;;26.77;20.00;;;;;;;3.78;80.20;102545.34;5046149;28;20484;-81
2021/12/18 06:56:04;;;;;;;26.63;19.63;;;;;;;3.78;79.89;102545.34;5040483;28;20893;-81
2021/12/18 06:58:29;;;;;;;32.40;22.33;;;;;;;3.79;80.04;102556.91;5040823;28;20413;-81
2021/12/18 07:00:55;;;;;;;28.47;20.57;;;;;;;3.79;80.46;102548.88;5040911;28;20521;-81
2021/12/18 07:03:21;;;;;;;27.27;20.60;;;;;;;3.83;80.39;102552.91;5040805;28;20418;-81
2021/12/18 07:05:47;;;;;;;26.27;19.10;;;;;;;3.74;80.20;102552.00;5040418;28;20415;-81
2021/12/18 07:08:13;;;;;;;24.70;19.17;;;;;;;3.80;80.07;102550.53;5040976;28;20397;-81
2021/12/18 07:10:38;;;;;;;26.70;20.00;;;;;;;3.83;80.00;102544.88;5038578;28;20996;-81
2021/12/18 07:13:03;;;;;;;26.50;20.40;;;;;;;3.76;80.14;102543.78;5038058;28;20446;-80
2021/12/18 07:15:29;;;;;;;29.98;20.95;;;;;;;3.75;80.33;102537.59;5045297;28;20413;-81
2021/12/18 07:17:54;;;;;;;27.73;19.97;;;;;;;3.78;80.24;102547.16;5040022;28;20420;-80
2021/12/18 07:20:19;;;;;;;28.17;20.17;;;;;;;3.74;80.29;102546.63;5038873;28;20420;-81
2021/12/18 07:22:45;;;;;;;27.33;19.93;;;;;;;3.78;80.22;102545.34;5040461;28;20404;-83
2021/12/18 07:25:10;;;;;;;26.77;19.37;;;;;;;3.74;80.07;102545.78;5040637;28;20403;-79
2021/12/18 07:27:36;;;;;;;30.03;20.63;;;;;;;3.77;80.08;102551.69;5045405;28;20795;-79
2021/12/18 07:30:04;;;;;;;28.63;20.90;;;;;;;3.77;80.12;102553.53;5039543;28;20541;-80
2021/12/18 07:32:29;;;;;;;26.85;19.27;;;;;;;3.76;80.23;102550.00;5041421;28;20418;-80
2021/12/18 07:34:55;;;;;;;29.80;20.17;;;;;;;3.80;79.99;102558.59;5048263;28;20747;-80
2021/12/18 07:37:22;;;;;;;26.03;19.20;;;;;;;3.78;80.13;102549.84;5040093;28;20407;-80
2021/12/18 07:39:48;;;;;;;27.60;19.92;;;;;;;3.81;79.79;102552.22;5040772;28;20437;-80
2021/12/18 07:42:13;;;;;;;26.70;19.07;;;;;;;3.78;79.90;102558.75;5040518;28;20508;-82
2021/12/18 07:44:40;;;;;;;26.23;19.00;;;;;;;3.65;80.51;102556.38;5046828;28;20399;-82
2021/12/18 07:47:06;;;;;;;24.30;18.33;;;;;;;3.67;80.48;102549.06;5039141;28;20747;-81
2021/12/18 07:49:31;;;;;;;26.63;19.47;;;;;;;3.64;80.40;102554.72;5039316;28;20410;-80
2021/12/18 07:52:01;;;;;;;32.57;20.03;;;;;;;3.67;80.21;102556.25;5041568;28;20400;-81
2021/12/18 07:54:27;;;;;;;25.52;18.52;;;;;;;3.69;80.12;102551.56;5040825;28;20772;-80
2021/12/18 07:56:53;;;;;;;25.88;18.40;;;;;;;3.72;80.03;102553.13;5035759;28;20554;-81
2021/12/18 07:59:18;;;;;;;25.83;18.37;;;;;;;3.73;80.13;102554.81;5036793;28;20510;-81
2021/12/18 08:01:43;;;;;;;26.07;19.23;;;;;;;3.75;79.90;102564.41;5038290;28;20413;-79
2021/12/18 08:04:09;;;;;;;25.23;18.87;;;;;;;3.86;79.74;102566.03;5045878;28;20405;-80
2021/12/18 08:06:34;;;;;;;26.17;19.50;;;;;;;3.76;79.83;102557.19;5033673;28;20414;-80
2021/12/18 08:08:59;;;;;;;25.83;19.80;;;;;;;3.79;79.64;102556.91;5036688;28;20464;-81
2021/12/18 08:11:25;;;;;;;28.63;18.77;;;;;;;3.80;79.69;102559.44;5035697;28;20395;-81
2021/12/18 08:13:50;;;;;;;23.37;17.77;;;;;;;3.77;79.76;102558.88;5041305;28;20399;-80
2021/12/18 08:16:15;;;;;;;25.07;18.47;;;;;;;3.77;79.52;102557.06;5034965;28;21495;-80
2021/12/18 08:18:40;;;;;;;25.43;18.77;;;;;;;3.86;79.57;102556.16;5035822;28;20568;-80
2021/12/18 08:21:06;;;;;;;26.17;18.53;;;;;;;3.80;79.25;102556.75;5034672;28;20455;-81
2021/12/18 08:23:31;;;;;;;24.90;18.77;;;;;;;3.67;79.81;102554.41;5034580;28;20395;-80
2021/12/18 08:25:56;;;;;;;22.63;17.13;;;;;;;3.67;80.18;102564.31;5039901;28;20406;-79
2021/12/18 08:28:22;;;;;;;26.23;17.60;;;;;;;3.75;79.65;102556.38;5041678;28;20466;-80
2021/12/18 08:30:47;;;;;;;23.13;16.93;;;;;;;3.70;79.69;102558.63;5037915;28;20450;-81
2021/12/18 08:33:13;;;;;;;22.00;17.47;;;;;;;3.75;79.57;102556.38;5040838;28;20407;-82
2021/12/18 08:35:38;;;;;;;21.87;16.97;;;;;;;3.71;79.58;102563.00;5064608;28;20940;-81
2021/12/18 08:38:05;;;;;;;23.55;17.40;;;;;;;3.73;79.35;102549.44;5036458;28;20403;-80
2021/12/18 08:40:32;;;;;;;22.45;17.30;;;;;;;3.75;79.44;102558.19;5037364;28;20428;-80
2021/12/18 08:42:57;;;;;;;23.15;16.48;;;;;;;3.89;79.25;102555.84;5047516;28;20900;-81
2021/12/18 08:45:23;;;;;;;21.30;15.93;;;;;;;3.89;79.14;102550.47;5046481;28;20499;-80
2021/12/18 08:47:49;;;;;;;23.38;17.02;;;;;;;3.92;79.13;102554.72;5038244;28;20386;-81
2021/12/18 08:50:17;;;;;;;24.50;17.95;;;;;;;3.96;78.91;102548.88;5043453;28;20580;-82
2021/12/18 08:52:46;;;;;;;33.80;20.00;;;;;;;3.94;78.78;102550.88;5046915;28;20443;-81
2021/12/18 08:55:13;;;;;;;23.17;17.77;;;;;;;3.86;78.75;102552.63;5051026;28;20492;-81
2021/12/18 08:57:38;;;;;;;25.38;18.52;;;;;;;3.86;78.88;102553.47;5038992;28;20392;-81
2021/12/18 09:00:11;;;;;;;23.67;17.23;;;;;;;4.14;78.23;102549.75;5047883;28;20422;-81
2021/12/18 09:02:40;;;;;;;27.35;18.55;;;;;;;4.14;78.15;102554.28;5045108;28;20417;-81
2021/12/18 09:05:06;;;;;;;23.95;17.30;;;;;;;4.05;78.14;102553.34;5040315;28;20409;-82
2021/12/18 09:07:31;;;;;;;24.10;17.93;;;;;;;4.07;78.15;102548.69;5043953;28;20478;-81
2021/12/18 09:09:57;;;;;;;38.27;21.50;;;;;;;4.20;77.95;102548.31;5030410;28;20497;-81
2021/12/18 09:12:22;;;;;;;64.25;26.73;;;;;;;4.22;78.25;102548.13;5033201;28;20947;-81
2021/12/18 09:14:47;;;;;;;26.83;20.33;;;;;;;4.23;78.07;102550.69;5034398;28;20403;-82
2021/12/18 09:17:13;;;;;;;24.97;19.20;;;;;;;4.21;78.05;102544.63;5047923;28;20410;-81
2021/12/18 09:19:38;;;;;;;25.65;18.90;;;;;;;4.12;78.11;102549.06;5040828;28;20922;-81
2021/12/18 09:22:06;;;;;;;25.20;18.33;;;;;;;4.28;78.12;102551.06;5043513;28;20413;-81
2021/12/18 09:24:31;;;;;;;26.40;18.65;;;;;;;4.18;78.21;102555.69;5045202;28;20450;-81
2021/12/18 09:26:57;;;;;;;24.47;16.77;;;;;;;4.14;78.41;102547.09;5048175;28;20395;-82
2021/12/18 09:29:22;;;;;;;23.70;17.17;;;;;;;4.35;77.71;102543.22;5039172;28;20396;-82
2021/12/18 09:31:47;;;;;;;23.10;16.80;;;;;;;4.32;77.06;102541.69;5041387;28;20403;-81
2021/12/18 09:34:13;;;;;;;24.03;16.10;;;;;;;4.29;77.25;102549.22;5030479;28;20411;-82
2021/12/18 09:36:38;;;;;;;26.13;16.57;;;;;;;4.30;77.33;102545.53;5043893;28;20413;-81
2021/12/18 09:39:04;;;;;;;24.42;17.83;;;;;;;4.24;77.61;102541.63;5033337;28;20422;-82
2021/12/18 09:41:30;;;;;;;22.40;16.92;;;;;;;4.41;77.25;102531.91;5049889;28;20523;-82
2021/12/18 09:43:55;;;;;;;26.23;17.45;;;;;;;4.57;77.09;102532.03;5041009;28;20406;-81
2021/12/18 09:46:21;;;;;;;25.90;16.80;;;;;;;4.63;77.16;102526.88;5041719;28;20752;-81
2021/12/18 09:48:46;;;;;;;25.70;16.43;;;;;;;4.79;76.38;102523.47;5033374;28;20406;-81
2021/12/18 09:51:23;;;;;;;22.03;16.60;;;;;;;4.99;75.64;102521.44;5045320;28;20407;-82
2021/12/18 09:53:51;;;;;;;21.00;16.42;;;;;;;4.86;75.32;102519.16;5040618;28;20752;-81
2021/12/18 09:56:16;;;;;;;21.67;16.52;;;;;;;4.80;76.08;102524.31;5032386;28;20422;-81
2021/12/18 09:58:42;;;;;;;24.17;17.90;;;;;;;4.86;75.61;102518.31;5037782;28;20409;-81
2021/12/18 10:01:07;;;;;;;23.23;16.07;;;;;;;4.76;75.89;102512.19;5051084;28;20385;-82
2021/12/18 10:03:54;;;;;;;21.40;15.10;;;;;;;4.68;76.06;102511.13;5037880;28;20866;-81
2021/12/18 10:06:36;;;;;;;19.42;14.43;;;;;;;4.83;76.19;102513.25;5035991;28;20736;-81
2021/12/18 10:09:10;;;;;;;19.48;13.77;;;;;;;5.00;75.69;102509.69;5031778;28;20856;-82
2021/12/18 10:11:49;;;;;;;21.25;15.00;;;;;;;4.95;75.04;102499.41;5047363;28;20413;-81
2021/12/18 10:14:17;;;;;;;19.85;14.77;;;;;;;5.12;75.35;102492.28;5044397;28;20419;-81
2021/12/18 10:16:52;;;;;;;20.88;14.20;;;;;;;5.29;74.59;102488.69;5031634;28;20395;-81
2021/12/18 10:19:23;;;;;;;18.53;14.10;;;;;;;5.28;74.38;102480.75;5035949;28;20421;-82
2021/12/18 10:21:57;;;;;;;20.52;14.43;;;;;;;5.13;74.69;102484.06;5035446;28;20759;-82
2021/12/18 10:24:24;;;;;;;19.77;13.98;;;;;;;5.05;74.71;102477.78;5032816;28;20417;-82
2021/12/18 10:26:49;;;;;;;18.50;14.77;;;;;;;5.19;74.80;102478.06;5040030;28;20444;-83
2021/12/18 10:29:28;;;;;;;32.80;15.30;;;;;;;5.54;73.08;102485.06;5038326;28;20924;-81
2021/12/18 10:31:54;;;;;;;19.98;14.32;;;;;;;5.54;73.14;102474.31;5054101;28;20405;-81
2021/12/18 10:34:23;;;;;;;21.05;15.38;;;;;;;5.45;73.47;102466.38;5051441;28;20388;-81
2021/12/18 10:37:21;;;;;;;29.33;15.73;;;;;;;5.50;73.19;102469.44;5037121;28;20415;-81
2021/12/18 10:40:15;;;;;;;21.23;15.35;;;;;;;5.66;73.35;102470.31;5036779;28;20426;-82
2021/12/18 10:42:45;;;;;;;19.58;15.07;;;;;;;5.92;72.30;102464.03;5019771;28;20948;-81
2021/12/18 10:45:24;;;;;;;22.10;15.48;;;;;;;6.34;71.57;102458.50;5042589;28;20546;-82
2021/12/18 10:48:05;;;;;;;19.13;16.27;;;;;;;6.26;70.69;102454.78;5044573;28;20392;-81
2021/12/18 10:50:37;;;;;;;21.77;16.60;;;;;;;6.18;71.16;102460.19;5041769;28;20404;-81
2021/12/18 10:53:09;;;;;;;22.02;16.75;;;;;;;6.17;71.12;102463.03;5049147;28;20486;-82
2021/12/18 10:55:56;;;;;;;18.85;14.45;;;;;;;6.03;71.44;102461.84;5042891;28;20501;-81
2021/12/18 10:58:36;;;;;;;21.17;14.95;;;;;;;5.87;71.58;102467.19;5048893;28;20430;-81
2021/12/18 11:01:11;;;;;;;18.70;14.60;;;;;;;5.63;72.50;102454.50;5046473;28;20745;-82
2021/12/18 11:03:38;;;;;;;22.58;15.15;;;;;;;5.62;73.39;102457.38;5036418;28;20968;-82
2021/12/18 11:06:25;;;;;;;19.80;14.68;;;;;;;5.53;73.55;102461.06;5040562;28;20468;-81
2021/12/18 11:09:11;;;;;;;24.43;15.47;;;;;;;5.56;73.56;102450.81;5047468;28;20395;-81
2021/12/18 11:14:19;;;;;;;20.38;15.20;;;;;;;5.52;73.69;102436.00;5044206;28;20889;-82
2021/12/18 11:16:48;;;;;;;21.63;15.07;;;;;;;5.54;73.17;102433.97;5036930;28;20405;-81
2021/12/18 11:19:16;;;;;;;24.27;16.40;;;;;;;5.59;73.65;102428.97;5059336;28;20751;-81
2021/12/18 11:21:46;;;;;;;21.15;14.63;;;;;;;5.51;73.38;102430.78;5031139;28;20403;-82
2021/12/18 11:24:12;;;;;;;21.30;15.43;;;;;;;5.40;74.08;102431.91;5046078;28;20382;-81
2021/12/18 11:26:55;;;;;;;21.25;15.27;;;;;;;5.47;73.79;102430.25;5034826;28;20456;-81
2021/12/18 11:29:40;;;;;;;22.02;16.00;;;;;;;5.60;73.87;102432.47;5026667;28;20398;-82
2021/12/18 11:32:07;;;;;;;21.58;15.05;;;;;;;5.64;73.01;102425.75;5036808;28;20757;-81
2021/12/18 11:34:33;;;;;;;20.23;15.00;;;;;;;5.42;73.93;102419.16;5041819;28;20403;-81
2021/12/18 11:36:59;;;;;;;23.07;15.13;;;;;;;5.28;74.72;102413.56;5044024;28;20397;-81
2021/12/18 11:39:29;;;;;;;20.15;14.57;;;;;;;5.34;74.53;102408.38;5044816;28;20904;-81
2021/12/18 11:41:54;;;;;;;21.88;14.80;;;;;;;5.26;74.48;102410.19;5042607;28;20405;-81
2021/12/18 11:44:24;;;;;;;20.95;15.43;;;;;;;5.24;74.61;102408.50;5043501;28;20409;-80
2021/12/18 11:46:50;;;;;;;20.05;14.02;;;;;;;5.22;74.55;102407.00;5037415;28;20506;-83
2021/12/18 11:49:15;;;;;;;19.97;14.23;;;;;;;5.27;74.02;102411.91;5042974;28;20888;-82
2021/12/18 11:52:00;;;;;;;20.33;14.97;;;;;;;5.28;74.34;102411.72;5040559;28;20409;-81
2021/12/18 11:54:49;;;;;;;18.52;13.77;;;;;;;5.38;74.41;102398.13;5034399;28;20422;-82
2021/12/18 11:57:35;;;;;;;18.55;13.50;;;;;;;5.50;73.71;102394.97;5030986;28;20491;-82
2021/12/18 12:00:01;;;;;;;17.70;13.60;;;;;;;5.50;74.10;102396.84;5031240;28;20419;-82